sensor_id;sensor_type;location;lat;lon;timestamp;temperature;humidity
25024;DHT22;13033;50.936;5.334;2023-04-24T00:01:42;10.60;80.10
25024;DHT22;13033;50.936;5.334;2023-04-24T00:04:08;10.50;80.40
25024;DHT22;13033;50.936;5.334;2023-04-24T00:06:38;10.50;80.40
25024;DHT22;13033;50.936;5.334;2023-04-24T00:09:08;10.60;80.20
25024;DHT22;13033;50.936;5.334;2023-04-24T00:11:35;10.60;80.00
25024;DHT22;13033;50.936;5.334;2023-04-24T00:14:02;10.60;82.00
25024;DHT22;13033;50.936;5.334;2023-04-24T00:16:27;10.50;82.00
25024;DHT22;13033;50.936;5.334;2023-04-24T00:18:53;10.60;82.80
25024;DHT22;13033;50.936;5.334;2023-04-24T00:21:19;10.70;82.90
25024;DHT22;13033;50.936;5.334;2023-04-24T00:23:45;10.60;82.80
25024;DHT22;13033;50.936;5.334;2023-04-24T00:26:11;10.50;79.60
25024;DHT22;13033;50.936;5.334;2023-04-24T00:28:37;10.40;84.00
25024;DHT22;13033;50.936;5.334;2023-04-24T00:31:03;10.40;86.60
25024;DHT22;13033;50.936;5.334;2023-04-24T00:33:28;10.40;88.40
25024;DHT22;13033;50.936;5.334;2023-04-24T00:35:54;10.40;88.70
25024;DHT22;13033;50.936;5.334;2023-04-24T00:38:19;10.40;86.50
25024;DHT22;13033;50.936;5.334;2023-04-24T00:40:45;10.50;86.90
25024;DHT22;13033;50.936;5.334;2023-04-24T00:43:11;10.50;88.90
25024;DHT22;13033;50.936;5.334;2023-04-24T00:45:37;10.50;85.00
25024;DHT22;13033;50.936;5.334;2023-04-24T00:48:03;10.60;80.60
25024;DHT22;13033;50.936;5.334;2023-04-24T00:50:30;10.50;84.40
25024;DHT22;13033;50.936;5.334;2023-04-24T00:52:56;10.50;85.80
25024;DHT22;13033;50.936;5.334;2023-04-24T00:55:21;10.70;82.10
25024;DHT22;13033;50.936;5.334;2023-04-24T00:57:47;10.70;78.00
25024;DHT22;13033;50.936;5.334;2023-04-24T01:00:14;10.60;83.50
25024;DHT22;13033;50.936;5.334;2023-04-24T01:02:43;10.50;84.00
25024;DHT22;13033;50.936;5.334;2023-04-24T01:05:14;10.50;83.80
25024;DHT22;13033;50.936;5.334;2023-04-24T01:07:41;10.50;85.90
25024;DHT22;13033;50.936;5.334;2023-04-24T01:10:11;10.40;85.90
25024;DHT22;13033;50.936;5.334;2023-04-24T01:12:38;10.50;88.20
25024;DHT22;13033;50.936;5.334;2023-04-24T01:15:04;10.50;89.60
25024;DHT22;13033;50.936;5.334;2023-04-24T01:17:32;10.50;87.20
25024;DHT22;13033;50.936;5.334;2023-04-24T01:19:58;10.40;90.40
25024;DHT22;13033;50.936;5.334;2023-04-24T01:22:25;10.40;90.60
25024;DHT22;13033;50.936;5.334;2023-04-24T01:24:51;10.40;90.50
25024;DHT22;13033;50.936;5.334;2023-04-24T01:27:17;10.50;90.70
25024;DHT22;13033;50.936;5.334;2023-04-24T01:29:43;10.60;88.40
25024;DHT22;13033;50.936;5.334;2023-04-24T01:32:09;10.60;86.20
25024;DHT22;13033;50.936;5.334;2023-04-24T01:34:35;10.70;83.70
25024;DHT22;13033;50.936;5.334;2023-04-24T01:37:00;10.60;83.30
25024;DHT22;13033;50.936;5.334;2023-04-24T01:39:26;10.50;86.40
25024;DHT22;13033;50.936;5.334;2023-04-24T01:41:54;10.50;88.00
25024;DHT22;13033;50.936;5.334;2023-04-24T01:44:21;10.30;91.00
25024;DHT22;13033;50.936;5.334;2023-04-24T01:46:47;10.20;91.80
25024;DHT22;13033;50.936;5.334;2023-04-24T01:49:13;10.30;92.20
25024;DHT22;13033;50.936;5.334;2023-04-24T01:51:38;10.30;90.70
25024;DHT22;13033;50.936;5.334;2023-04-24T01:54:04;10.30;91.40
25024;DHT22;13033;50.936;5.334;2023-04-24T01:56:33;10.30;91.00
25024;DHT22;13033;50.936;5.334;2023-04-24T01:59:02;10.30;90.50
25024;DHT22;13033;50.936;5.334;2023-04-24T02:01:33;10.30;91.00
25024;DHT22;13033;50.936;5.334;2023-04-24T02:04:00;10.30;91.40
25024;DHT22;13033;50.936;5.334;2023-04-24T02:06:25;10.40;90.40
25024;DHT22;13033;50.936;5.334;2023-04-24T02:08:51;10.40;90.80
25024;DHT22;13033;50.936;5.334;2023-04-24T02:11:17;10.40;91.70
25024;DHT22;13033;50.936;5.334;2023-04-24T02:13:44;10.30;96.60
25024;DHT22;13033;50.936;5.334;2023-04-24T02:16:09;10.10;99.50
25024;DHT22;13033;50.936;5.334;2023-04-24T02:18:35;10.20;99.90
25024;DHT22;13033;50.936;5.334;2023-04-24T02:21:01;10.20;99.90
25024;DHT22;13033;50.936;5.334;2023-04-24T02:23:27;10.10;99.90
25024;DHT22;13033;50.936;5.334;2023-04-24T02:25:53;10.20;99.70
25024;DHT22;13033;50.936;5.334;2023-04-24T02:28:19;10.10;99.90
25024;DHT22;13033;50.936;5.334;2023-04-24T02:30:45;9.90;99.90
25024;DHT22;13033;50.936;5.334;2023-04-24T02:33:11;10.00;99.90
25024;DHT22;13033;50.936;5.334;2023-04-24T02:35:37;9.80;99.90
25024;DHT22;13033;50.936;5.334;2023-04-24T02:38:03;10.00;99.80
25024;DHT22;13033;50.936;5.334;2023-04-24T02:40:29;9.80;99.90
25024;DHT22;13033;50.936;5.334;2023-04-24T02:42:55;9.90;99.90
25024;DHT22;13033;50.936;5.334;2023-04-24T02:45:20;9.90;99.90
25024;DHT22;13033;50.936;5.334;2023-04-24T02:47:46;9.90;99.90
25024;DHT22;13033;50.936;5.334;2023-04-24T02:50:12;9.90;99.90
25024;DHT22;13033;50.936;5.334;2023-04-24T02:52:37;9.90;99.90
25024;DHT22;13033;50.936;5.334;2023-04-24T02:55:03;9.80;99.90
25024;DHT22;13033;50.936;5.334;2023-04-24T02:57:29;9.90;99.20
25024;DHT22;13033;50.936;5.334;2023-04-24T02:59:55;9.80;99.90
25024;DHT22;13033;50.936;5.334;2023-04-24T03:02:21;9.80;99.80
25024;DHT22;13033;50.936;5.334;2023-04-24T03:04:46;9.90;99.90
25024;DHT22;13033;50.936;5.334;2023-04-24T03:07:13;9.80;99.90
25024;DHT22;13033;50.936;5.334;2023-04-24T03:09:40;9.80;99.90
25024;DHT22;13033;50.936;5.334;2023-04-24T03:12:06;9.70;99.90
25024;DHT22;13033;50.936;5.334;2023-04-24T03:14:31;9.70;99.90
25024;DHT22;13033;50.936;5.334;2023-04-24T03:16:57;9.70;99.90
25024;DHT22;13033;50.936;5.334;2023-04-24T03:19:23;9.60;99.90
25024;DHT22;13033;50.936;5.334;2023-04-24T03:21:49;9.60;99.90
25024;DHT22;13033;50.936;5.334;2023-04-24T03:24:15;9.60;99.90
25024;DHT22;13033;50.936;5.334;2023-04-24T03:26:41;9.60;99.90
25024;DHT22;13033;50.936;5.334;2023-04-24T03:29:06;9.60;99.90
25024;DHT22;13033;50.936;5.334;2023-04-24T03:31:32;9.70;99.90
25024;DHT22;13033;50.936;5.334;2023-04-24T03:33:57;9.60;99.90
25024;DHT22;13033;50.936;5.334;2023-04-24T03:36:23;9.50;99.90
25024;DHT22;13033;50.936;5.334;2023-04-24T03:38:49;9.50;99.90
25024;DHT22;13033;50.936;5.334;2023-04-24T03:41:14;9.50;99.90
25024;DHT22;13033;50.936;5.334;2023-04-24T03:43:40;9.40;99.90
25024;DHT22;13033;50.936;5.334;2023-04-24T03:46:05;9.40;99.90
25024;DHT22;13033;50.936;5.334;2023-04-24T03:48:32;9.50;99.90
25024;DHT22;13033;50.936;5.334;2023-04-24T03:50:57;9.40;99.90
25024;DHT22;13033;50.936;5.334;2023-04-24T03:53:23;9.50;99.90
25024;DHT22;13033;50.936;5.334;2023-04-24T03:55:49;9.40;99.90
25024;DHT22;13033;50.936;5.334;2023-04-24T03:58:14;9.50;99.90
25024;DHT22;13033;50.936;5.334;2023-04-24T04:00:40;9.60;99.90
25024;DHT22;13033;50.936;5.334;2023-04-24T04:03:06;9.50;99.90
25024;DHT22;13033;50.936;5.334;2023-04-24T04:05:32;9.60;99.90
25024;DHT22;13033;50.936;5.334;2023-04-24T04:07:57;9.60;99.90
25024;DHT22;13033;50.936;5.334;2023-04-24T04:10:23;9.50;99.90
25024;DHT22;13033;50.936;5.334;2023-04-24T04:12:49;9.50;99.90
25024;DHT22;13033;50.936;5.334;2023-04-24T04:15:16;9.40;99.90
25024;DHT22;13033;50.936;5.334;2023-04-24T04:17:41;9.50;99.90
25024;DHT22;13033;50.936;5.334;2023-04-24T04:20:07;9.50;99.90
25024;DHT22;13033;50.936;5.334;2023-04-24T04:22:36;9.30;99.90
25024;DHT22;13033;50.936;5.334;2023-04-24T04:25:02;9.30;99.90
25024;DHT22;13033;50.936;5.334;2023-04-24T04:27:28;9.30;99.90
25024;DHT22;13033;50.936;5.334;2023-04-24T04:29:58;9.20;99.90
25024;DHT22;13033;50.936;5.334;2023-04-24T04:32:24;9.20;99.90
25024;DHT22;13033;50.936;5.334;2023-04-24T04:34:50;9.20;99.90
25024;DHT22;13033;50.936;5.334;2023-04-24T04:37:18;9.20;99.90
25024;DHT22;13033;50.936;5.334;2023-04-24T04:39:44;9.10;99.90
25024;DHT22;13033;50.936;5.334;2023-04-24T04:42:09;9.10;99.90
25024;DHT22;13033;50.936;5.334;2023-04-24T04:44:35;9.10;99.90
25024;DHT22;13033;50.936;5.334;2023-04-24T04:47:02;9.10;99.90
25024;DHT22;13033;50.936;5.334;2023-04-24T04:49:29;9.10;99.90
25024;DHT22;13033;50.936;5.334;2023-04-24T04:51:56;9.00;99.90
25024;DHT22;13033;50.936;5.334;2023-04-24T04:54:21;9.10;99.90
25024;DHT22;13033;50.936;5.334;2023-04-24T04:56:50;9.10;99.90
25024;DHT22;13033;50.936;5.334;2023-04-24T04:59:15;9.20;99.90
25024;DHT22;13033;50.936;5.334;2023-04-24T05:01:41;9.20;99.90
25024;DHT22;13033;50.936;5.334;2023-04-24T05:04:07;9.00;99.90
25024;DHT22;13033;50.936;5.334;2023-04-24T05:06:32;9.00;99.90
25024;DHT22;13033;50.936;5.334;2023-04-24T05:08:58;9.10;99.90
25024;DHT22;13033;50.936;5.334;2023-04-24T05:11:24;9.10;99.90
25024;DHT22;13033;50.936;5.334;2023-04-24T05:13:49;9.10;99.90
25024;DHT22;13033;50.936;5.334;2023-04-24T05:16:15;9.10;99.90
25024;DHT22;13033;50.936;5.334;2023-04-24T05:18:41;9.10;99.90
25024;DHT22;13033;50.936;5.334;2023-04-24T05:21:06;9.10;99.90
25024;DHT22;13033;50.936;5.334;2023-04-24T05:23:32;9.20;99.90
25024;DHT22;13033;50.936;5.334;2023-04-24T05:25:57;9.20;99.90
25024;DHT22;13033;50.936;5.334;2023-04-24T05:28:23;9.30;99.90
25024;DHT22;13033;50.936;5.334;2023-04-24T05:30:54;9.30;99.90
25024;DHT22;13033;50.936;5.334;2023-04-24T05:33:19;9.40;99.90
25024;DHT22;13033;50.936;5.334;2023-04-24T05:35:45;9.30;99.90
25024;DHT22;13033;50.936;5.334;2023-04-24T05:38:12;9.30;99.90
25024;DHT22;13033;50.936;5.334;2023-04-24T05:40:39;9.30;99.90
25024;DHT22;13033;50.936;5.334;2023-04-24T05:43:04;9.20;99.90
25024;DHT22;13033;50.936;5.334;2023-04-24T05:45:30;9.10;99.90
25024;DHT22;13033;50.936;5.334;2023-04-24T05:47:57;9.10;99.90
25024;DHT22;13033;50.936;5.334;2023-04-24T05:50:22;9.10;99.90
25024;DHT22;13033;50.936;5.334;2023-04-24T05:52:48;9.00;99.90
25024;DHT22;13033;50.936;5.334;2023-04-24T05:55:14;9.00;99.90
25024;DHT22;13033;50.936;5.334;2023-04-24T05:57:39;8.90;99.90
25024;DHT22;13033;50.936;5.334;2023-04-24T06:00:05;8.90;99.90
25024;DHT22;13033;50.936;5.334;2023-04-24T06:02:31;8.80;99.90
25024;DHT22;13033;50.936;5.334;2023-04-24T06:04:58;8.80;99.90
25024;DHT22;13033;50.936;5.334;2023-04-24T06:07:27;8.80;99.90
25024;DHT22;13033;50.936;5.334;2023-04-24T06:09:53;8.80;99.90
25024;DHT22;13033;50.936;5.334;2023-04-24T06:12:18;8.80;99.90
25024;DHT22;13033;50.936;5.334;2023-04-24T06:14:44;8.70;99.90
25024;DHT22;13033;50.936;5.334;2023-04-24T06:17:10;8.70;99.90
25024;DHT22;13033;50.936;5.334;2023-04-24T06:19:35;8.70;99.90
25024;DHT22;13033;50.936;5.334;2023-04-24T06:22:01;8.70;99.90
25024;DHT22;13033;50.936;5.334;2023-04-24T06:24:29;8.70;99.90
25024;DHT22;13033;50.936;5.334;2023-04-24T06:26:55;8.80;99.90
25024;DHT22;13033;50.936;5.334;2023-04-24T06:29:22;8.90;99.90
25024;DHT22;13033;50.936;5.334;2023-04-24T06:31:48;8.90;99.90
25024;DHT22;13033;50.936;5.334;2023-04-24T06:34:14;8.90;99.90
25024;DHT22;13033;50.936;5.334;2023-04-24T06:36:39;8.80;99.90
25024;DHT22;13033;50.936;5.334;2023-04-24T06:39:05;8.70;99.90
25024;DHT22;13033;50.936;5.334;2023-04-24T06:41:30;8.60;99.90
25024;DHT22;13033;50.936;5.334;2023-04-24T06:43:56;8.60;99.90
25024;DHT22;13033;50.936;5.334;2023-04-24T06:46:22;8.60;99.90
25024;DHT22;13033;50.936;5.334;2023-04-24T06:48:51;8.50;99.90
25024;DHT22;13033;50.936;5.334;2023-04-24T06:51:17;8.50;99.90
25024;DHT22;13033;50.936;5.334;2023-04-24T06:53:43;8.50;99.90
25024;DHT22;13033;50.936;5.334;2023-04-24T06:56:09;8.50;99.90
25024;DHT22;13033;50.936;5.334;2023-04-24T06:58:35;8.50;99.90
25024;DHT22;13033;50.936;5.334;2023-04-24T07:01:00;8.50;99.90
25024;DHT22;13033;50.936;5.334;2023-04-24T07:03:26;8.60;99.90
25024;DHT22;13033;50.936;5.334;2023-04-24T07:05:52;8.70;99.90
25024;DHT22;13033;50.936;5.334;2023-04-24T07:08:18;8.80;99.90
25024;DHT22;13033;50.936;5.334;2023-04-24T07:10:45;8.70;99.90
25024;DHT22;13033;50.936;5.334;2023-04-24T07:13:11;8.70;99.90
25024;DHT22;13033;50.936;5.334;2023-04-24T07:15:37;8.80;99.90
25024;DHT22;13033;50.936;5.334;2023-04-24T07:18:02;8.80;99.90
25024;DHT22;13033;50.936;5.334;2023-04-24T07:20:28;8.80;99.90
25024;DHT22;13033;50.936;5.334;2023-04-24T07:22:54;9.00;99.90
25024;DHT22;13033;50.936;5.334;2023-04-24T07:25:20;9.00;99.90
25024;DHT22;13033;50.936;5.334;2023-04-24T07:27:46;8.90;99.90
25024;DHT22;13033;50.936;5.334;2023-04-24T07:30:11;9.00;99.90
25024;DHT22;13033;50.936;5.334;2023-04-24T07:32:37;9.00;99.90
25024;DHT22;13033;50.936;5.334;2023-04-24T07:35:03;9.10;99.90
25024;DHT22;13033;50.936;5.334;2023-04-24T07:37:29;9.10;99.90
25024;DHT22;13033;50.936;5.334;2023-04-24T07:39:55;9.00;99.90
25024;DHT22;13033;50.936;5.334;2023-04-24T07:42:20;9.10;99.90
25024;DHT22;13033;50.936;5.334;2023-04-24T07:44:46;9.10;99.90
25024;DHT22;13033;50.936;5.334;2023-04-24T07:47:13;9.10;99.90
25024;DHT22;13033;50.936;5.334;2023-04-24T07:49:41;9.10;99.90
25024;DHT22;13033;50.936;5.334;2023-04-24T07:52:07;9.10;99.90
25024;DHT22;13033;50.936;5.334;2023-04-24T07:54:33;9.10;99.90
25024;DHT22;13033;50.936;5.334;2023-04-24T07:56:59;9.00;99.90
25024;DHT22;13033;50.936;5.334;2023-04-24T07:59:25;9.00;99.90
25024;DHT22;13033;50.936;5.334;2023-04-24T08:01:51;9.10;99.90
25024;DHT22;13033;50.936;5.334;2023-04-24T08:04:17;9.20;99.90
25024;DHT22;13033;50.936;5.334;2023-04-24T08:06:43;9.10;99.90
25024;DHT22;13033;50.936;5.334;2023-04-24T08:09:09;9.10;99.90
25024;DHT22;13033;50.936;5.334;2023-04-24T08:11:35;9.10;99.90
25024;DHT22;13033;50.936;5.334;2023-04-24T08:14:01;9.20;99.90
25024;DHT22;13033;50.936;5.334;2023-04-24T08:16:27;9.20;99.90
25024;DHT22;13033;50.936;5.334;2023-04-24T08:18:53;9.20;99.90
25024;DHT22;13033;50.936;5.334;2023-04-24T08:21:18;9.10;99.90
25024;DHT22;13033;50.936;5.334;2023-04-24T08:23:46;9.10;99.90
25024;DHT22;13033;50.936;5.334;2023-04-24T08:26:12;9.20;99.90
25024;DHT22;13033;50.936;5.334;2023-04-24T08:28:38;9.20;99.90
25024;DHT22;13033;50.936;5.334;2023-04-24T08:31:04;9.30;99.90
25024;DHT22;13033;50.936;5.334;2023-04-24T08:33:30;9.40;99.90
25024;DHT22;13033;50.936;5.334;2023-04-24T08:36:05;9.40;99.90
25024;DHT22;13033;50.936;5.334;2023-04-24T08:38:31;9.50;99.90
25024;DHT22;13033;50.936;5.334;2023-04-24T08:40:58;9.60;99.90
25024;DHT22;13033;50.936;5.334;2023-04-24T08:43:25;9.70;99.90
25024;DHT22;13033;50.936;5.334;2023-04-24T08:45:52;9.80;99.90
25024;DHT22;13033;50.936;5.334;2023-04-24T08:48:18;9.90;99.90
25024;DHT22;13033;50.936;5.334;2023-04-24T08:50:44;10.00;99.90
25024;DHT22;13033;50.936;5.334;2023-04-24T08:53:11;10.10;99.90
25024;DHT22;13033;50.936;5.334;2023-04-24T08:55:37;10.20;99.90
25024;DHT22;13033;50.936;5.334;2023-04-24T08:58:03;10.40;99.90
25024;DHT22;13033;50.936;5.334;2023-04-24T09:00:29;10.50;99.90
25024;DHT22;13033;50.936;5.334;2023-04-24T09:02:56;10.40;99.90
25024;DHT22;13033;50.936;5.334;2023-04-24T09:05:22;10.30;99.90
25024;DHT22;13033;50.936;5.334;2023-04-24T09:07:55;10.30;99.90
25024;DHT22;13033;50.936;5.334;2023-04-24T09:10:24;10.20;99.90
25024;DHT22;13033;50.936;5.334;2023-04-24T09:12:51;9.80;99.90
25024;DHT22;13033;50.936;5.334;2023-04-24T09:15:18;9.80;99.90
25024;DHT22;13033;50.936;5.334;2023-04-24T09:17:46;9.70;99.90
25024;DHT22;13033;50.936;5.334;2023-04-24T09:20:11;9.60;99.90
25024;DHT22;13033;50.936;5.334;2023-04-24T09:22:37;9.60;99.90
25024;DHT22;13033;50.936;5.334;2023-04-24T09:25:05;9.40;99.90
25024;DHT22;13033;50.936;5.334;2023-04-24T09:27:33;9.40;99.90
25024;DHT22;13033;50.936;5.334;2023-04-24T09:29:59;9.50;99.90
25024;DHT22;13033;50.936;5.334;2023-04-24T09:32:25;9.60;99.90
25024;DHT22;13033;50.936;5.334;2023-04-24T09:35:08;9.70;99.90
25024;DHT22;13033;50.936;5.334;2023-04-24T09:37:42;10.00;99.90
25024;DHT22;13033;50.936;5.334;2023-04-24T09:40:19;10.10;99.90
25024;DHT22;13033;50.936;5.334;2023-04-24T09:42:52;10.10;99.90
25024;DHT22;13033;50.936;5.334;2023-04-24T09:45:17;10.30;99.90
25024;DHT22;13033;50.936;5.334;2023-04-24T09:47:43;10.80;99.90
25024;DHT22;13033;50.936;5.334;2023-04-24T09:50:13;11.00;99.90
25024;DHT22;13033;50.936;5.334;2023-04-24T09:52:55;10.90;99.90
25024;DHT22;13033;50.936;5.334;2023-04-24T09:55:21;11.10;99.90
25024;DHT22;13033;50.936;5.334;2023-04-24T09:57:48;11.20;99.90
25024;DHT22;13033;50.936;5.334;2023-04-24T10:00:21;11.10;99.90
25024;DHT22;13033;50.936;5.334;2023-04-24T10:02:54;11.20;99.90
25024;DHT22;13033;50.936;5.334;2023-04-24T10:05:23;11.40;99.90
25024;DHT22;13033;50.936;5.334;2023-04-24T10:07:50;11.60;99.90
25024;DHT22;13033;50.936;5.334;2023-04-24T10:10:16;11.90;99.90
25024;DHT22;13033;50.936;5.334;2023-04-24T10:12:42;12.10;99.90
25024;DHT22;13033;50.936;5.334;2023-04-24T10:15:10;12.00;99.90
25024;DHT22;13033;50.936;5.334;2023-04-24T10:17:39;11.90;99.90
25024;DHT22;13033;50.936;5.334;2023-04-24T10:20:06;11.90;99.90
25024;DHT22;13033;50.936;5.334;2023-04-24T10:22:32;11.60;50.20
25024;DHT22;13033;50.936;5.334;2023-04-24T10:24:59;11.80;64.60
25024;DHT22;13033;50.936;5.334;2023-04-24T10:27:26;11.70;99.90
25024;DHT22;13033;50.936;5.334;2023-04-24T10:29:53;11.60;99.90
25024;DHT22;13033;50.936;5.334;2023-04-24T10:32:19;11.60;99.90
25024;DHT22;13033;50.936;5.334;2023-04-24T10:34:44;11.60;99.90
25024;DHT22;13033;50.936;5.334;2023-04-24T10:37:10;11.90;99.90
25024;DHT22;13033;50.936;5.334;2023-04-24T10:39:36;12.10;99.90
25024;DHT22;13033;50.936;5.334;2023-04-24T10:42:16;12.10;99.90
25024;DHT22;13033;50.936;5.334;2023-04-24T10:44:42;12.20;99.90
25024;DHT22;13033;50.936;5.334;2023-04-24T10:47:13;12.20;99.90
25024;DHT22;13033;50.936;5.334;2023-04-24T10:49:39;12.10;99.90
25024;DHT22;13033;50.936;5.334;2023-04-24T10:52:05;12.10;99.90
25024;DHT22;13033;50.936;5.334;2023-04-24T10:54:36;12.10;99.90
25024;DHT22;13033;50.936;5.334;2023-04-24T10:59:47;12.10;99.90
25024;DHT22;13033;50.936;5.334;2023-04-24T11:02:16;12.00;99.90
25024;DHT22;13033;50.936;5.334;2023-04-24T11:04:42;11.80;99.90
25024;DHT22;13033;50.936;5.334;2023-04-24T11:07:12;11.90;99.90
25024;DHT22;13033;50.936;5.334;2023-04-24T11:09:38;11.90;99.90
25024;DHT22;13033;50.936;5.334;2023-04-24T11:12:11;12.00;99.90
25024;DHT22;13033;50.936;5.334;2023-04-24T11:17:35;12.00;99.90
25024;DHT22;13033;50.936;5.334;2023-04-24T11:20:10;11.80;99.90
25024;DHT22;13033;50.936;5.334;2023-04-24T11:22:38;11.60;99.90
25024;DHT22;13033;50.936;5.334;2023-04-24T11:25:05;11.50;99.90
25024;DHT22;13033;50.936;5.334;2023-04-24T11:27:39;11.50;99.90
25024;DHT22;13033;50.936;5.334;2023-04-24T11:30:05;11.70;99.90
25024;DHT22;13033;50.936;5.334;2023-04-24T11:35:16;12.20;99.90
25024;DHT22;13033;50.936;5.334;2023-04-24T11:37:43;12.50;99.90
25024;DHT22;13033;50.936;5.334;2023-04-24T11:40:13;12.50;99.90
25024;DHT22;13033;50.936;5.334;2023-04-24T11:42:43;12.40;99.90
25024;DHT22;13033;50.936;5.334;2023-04-24T11:45:12;12.40;99.90
25024;DHT22;13033;50.936;5.334;2023-04-24T11:47:38;12.60;99.90
25024;DHT22;13033;50.936;5.334;2023-04-24T11:50:06;12.90;99.90
25024;DHT22;13033;50.936;5.334;2023-04-24T11:52:36;13.00;99.90
25024;DHT22;13033;50.936;5.334;2023-04-24T11:55:02;12.90;99.90
25024;DHT22;13033;50.936;5.334;2023-04-24T11:57:29;12.70;99.90
25024;DHT22;13033;50.936;5.334;2023-04-24T12:00:01;12.60;99.90
25024;DHT22;13033;50.936;5.334;2023-04-24T12:02:27;12.50;99.90
25024;DHT22;13033;50.936;5.334;2023-04-24T12:04:53;12.60;99.90
25024;DHT22;13033;50.936;5.334;2023-04-24T12:07:20;12.70;99.90
25024;DHT22;13033;50.936;5.334;2023-04-24T12:09:49;12.80;99.90
25024;DHT22;13033;50.936;5.334;2023-04-24T12:12:16;12.70;99.90
25024;DHT22;13033;50.936;5.334;2023-04-24T12:14:50;12.90;99.90
25024;DHT22;13033;50.936;5.334;2023-04-24T12:17:16;12.90;99.90
25024;DHT22;13033;50.936;5.334;2023-04-24T12:19:46;13.00;99.90
25024;DHT22;13033;50.936;5.334;2023-04-24T12:22:12;13.10;99.90
25024;DHT22;13033;50.936;5.334;2023-04-24T12:27:29;13.00;99.90
25024;DHT22;13033;50.936;5.334;2023-04-24T12:29:58;13.40;99.90
25024;DHT22;13033;50.936;5.334;2023-04-24T12:32:25;13.80;99.90
25024;DHT22;13033;50.936;5.334;2023-04-24T12:34:51;13.80;99.90
25024;DHT22;13033;50.936;5.334;2023-04-24T12:37:17;13.80;99.90
25024;DHT22;13033;50.936;5.334;2023-04-24T12:40:03;13.70;99.90
25024;DHT22;13033;50.936;5.334;2023-04-24T12:42:31;13.30;99.90
25024;DHT22;13033;50.936;5.334;2023-04-24T12:45:06;13.20;99.90
25024;DHT22;13033;50.936;5.334;2023-04-24T12:47:33;13.20;99.90
25024;DHT22;13033;50.936;5.334;2023-04-24T12:50:00;13.30;99.90
25024;DHT22;13033;50.936;5.334;2023-04-24T12:52:28;13.40;99.90
25024;DHT22;13033;50.936;5.334;2023-04-24T12:54:56;13.50;99.90
25024;DHT22;13033;50.936;5.334;2023-04-24T12:57:23;13.50;99.90
25024;DHT22;13033;50.936;5.334;2023-04-24T12:59:49;13.40;99.90
25024;DHT22;13033;50.936;5.334;2023-04-24T13:02:15;13.40;99.90
25024;DHT22;13033;50.936;5.334;2023-04-24T13:04:44;13.30;99.90
25024;DHT22;13033;50.936;5.334;2023-04-24T13:07:11;13.10;99.90
25024;DHT22;13033;50.936;5.334;2023-04-24T13:09:38;13.20;99.90
25024;DHT22;13033;50.936;5.334;2023-04-24T13:12:03;13.40;99.90
25024;DHT22;13033;50.936;5.334;2023-04-24T13:14:31;13.40;99.90
25024;DHT22;13033;50.936;5.334;2023-04-24T13:16:57;13.50;99.90
25024;DHT22;13033;50.936;5.334;2023-04-24T13:19:24;13.60;99.90
25024;DHT22;13033;50.936;5.334;2023-04-24T13:21:51;13.80;99.90
25024;DHT22;13033;50.936;5.334;2023-04-24T13:24:17;13.90;99.90
25024;DHT22;13033;50.936;5.334;2023-04-24T13:26:43;13.90;99.90
25024;DHT22;13033;50.936;5.334;2023-04-24T13:29:08;13.90;99.90
25024;DHT22;13033;50.936;5.334;2023-04-24T13:31:34;13.70;99.90
25024;DHT22;13033;50.936;5.334;2023-04-24T13:34:01;13.70;99.90
25024;DHT22;13033;50.936;5.334;2023-04-24T13:36:27;13.90;99.90
25024;DHT22;13033;50.936;5.334;2023-04-24T13:38:53;14.00;99.90
25024;DHT22;13033;50.936;5.334;2023-04-24T13:41:18;14.00;99.90
25024;DHT22;13033;50.936;5.334;2023-04-24T13:43:44;14.00;99.90
25024;DHT22;13033;50.936;5.334;2023-04-24T13:46:10;14.10;99.90
25024;DHT22;13033;50.936;5.334;2023-04-24T13:48:35;14.00;99.90
25024;DHT22;13033;50.936;5.334;2023-04-24T13:51:01;14.00;99.90
25024;DHT22;13033;50.936;5.334;2023-04-24T13:53:27;14.00;99.90
25024;DHT22;13033;50.936;5.334;2023-04-24T13:55:53;13.90;99.90
25024;DHT22;13033;50.936;5.334;2023-04-24T13:58:18;14.10;99.90
25024;DHT22;13033;50.936;5.334;2023-04-24T14:00:44;14.10;99.90
25024;DHT22;13033;50.936;5.334;2023-04-24T14:03:10;14.00;99.90
25024;DHT22;13033;50.936;5.334;2023-04-24T14:05:36;14.00;99.90
25024;DHT22;13033;50.936;5.334;2023-04-24T14:08:02;14.40;99.90
25024;DHT22;13033;50.936;5.334;2023-04-24T14:10:27;14.50;99.90
25024;DHT22;13033;50.936;5.334;2023-04-24T14:12:53;14.60;99.90
25024;DHT22;13033;50.936;5.334;2023-04-24T14:15:19;14.50;99.90
25024;DHT22;13033;50.936;5.334;2023-04-24T14:17:45;14.50;99.90
25024;DHT22;13033;50.936;5.334;2023-04-24T14:20:12;14.50;99.90
25024;DHT22;13033;50.936;5.334;2023-04-24T14:22:38;14.80;99.90
25024;DHT22;13033;50.936;5.334;2023-04-24T14:25:05;14.90;99.90
25024;DHT22;13033;50.936;5.334;2023-04-24T14:27:32;14.90;99.90
25024;DHT22;13033;50.936;5.334;2023-04-24T14:29:57;14.90;99.90
25024;DHT22;13033;50.936;5.334;2023-04-24T14:32:23;14.90;99.90
25024;DHT22;13033;50.936;5.334;2023-04-24T14:34:49;14.70;99.90
25024;DHT22;13033;50.936;5.334;2023-04-24T14:37:14;14.40;99.90
25024;DHT22;13033;50.936;5.334;2023-04-24T14:39:40;14.30;99.90
25024;DHT22;13033;50.936;5.334;2023-04-24T14:42:06;14.40;99.90
25024;DHT22;13033;50.936;5.334;2023-04-24T14:44:32;14.40;99.90
25024;DHT22;13033;50.936;5.334;2023-04-24T14:46:58;14.60;99.90
25024;DHT22;13033;50.936;5.334;2023-04-24T14:49:24;15.10;99.90
25024;DHT22;13033;50.936;5.334;2023-04-24T14:51:49;15.40;99.90
25024;DHT22;13033;50.936;5.334;2023-04-24T14:54:15;15.50;99.90
25024;DHT22;13033;50.936;5.334;2023-04-24T14:56:41;15.10;99.90
25024;DHT22;13033;50.936;5.334;2023-04-24T14:59:08;14.80;99.90
25024;DHT22;13033;50.936;5.334;2023-04-24T15:01:33;14.90;99.90
25024;DHT22;13033;50.936;5.334;2023-04-24T15:03:59;14.80;99.90
25024;DHT22;13033;50.936;5.334;2023-04-24T15:06:25;14.90;99.90
25024;DHT22;13033;50.936;5.334;2023-04-24T15:08:51;14.80;99.90
25024;DHT22;13033;50.936;5.334;2023-04-24T15:11:17;14.80;99.90
25024;DHT22;13033;50.936;5.334;2023-04-24T15:13:43;15.90;99.90
25024;DHT22;13033;50.936;5.334;2023-04-24T15:16:10;16.20;99.90
25024;DHT22;13033;50.936;5.334;2023-04-24T15:18:36;16.00;99.90
25024;DHT22;13033;50.936;5.334;2023-04-24T15:21:01;15.70;99.90
25024;DHT22;13033;50.936;5.334;2023-04-24T15:23:27;15.40;99.90
25024;DHT22;13033;50.936;5.334;2023-04-24T15:25:53;15.50;99.90
25024;DHT22;13033;50.936;5.334;2023-04-24T15:28:19;15.50;99.90
25024;DHT22;13033;50.936;5.334;2023-04-24T15:30:44;15.50;99.90
25024;DHT22;13033;50.936;5.334;2023-04-24T15:33:10;16.00;99.90
25024;DHT22;13033;50.936;5.334;2023-04-24T15:35:36;16.60;99.90
25024;DHT22;13033;50.936;5.334;2023-04-24T15:38:02;16.30;99.90
25024;DHT22;13033;50.936;5.334;2023-04-24T15:40:29;16.00;99.90
25024;DHT22;13033;50.936;5.334;2023-04-24T15:42:54;15.20;99.90
25024;DHT22;13033;50.936;5.334;2023-04-24T15:45:20;14.80;99.90